createdAt,value
2019-04-27T00:01:15.280Z,13.20
2019-04-27T00:03:54.232Z,13.30
2019-04-27T00:06:24.259Z,13.30
2019-04-27T00:08:57.580Z,13.20
2019-04-27T00:11:31.040Z,13.20
2019-04-27T00:14:00.782Z,13.20
2019-04-27T00:16:50.918Z,13.20
2019-04-27T00:19:31.711Z,13.20
2019-04-27T00:22:20.513Z,13.20
2019-04-27T00:24:50.161Z,13.20
2019-04-27T00:27:19.784Z,13.10
2019-04-27T00:29:49.545Z,13.20
2019-04-27T00:32:19.324Z,13.10
2019-04-27T00:34:49.193Z,13.10
2019-04-27T00:37:36.296Z,13.10
2019-04-27T00:40:19.874Z,13.10
2019-04-27T00:42:49.557Z,13.10
2019-04-27T00:45:19.289Z,13.10
2019-04-27T00:47:59.051Z,13.10
2019-04-27T00:50:20.216Z,13.10
2019-04-27T00:52:49.930Z,13.10
2019-04-27T00:55:19.560Z,13.10
2019-04-27T00:58:08.108Z,13.10
2019-04-27T01:01:08.977Z,13.10
2019-04-27T01:04:00.352Z,13.10
2019-04-27T01:06:30.018Z,13.10
2019-04-27T01:08:59.651Z,13.10
2019-04-27T01:11:29.299Z,13.10
2019-04-27T01:13:59.545Z,13.00
2019-04-27T01:16:29.341Z,13.00
2019-04-27T01:18:59.150Z,13.00
2019-04-27T01:21:29.530Z,13.00
2019-04-27T01:23:59.408Z,13.00
2019-04-27T01:26:53.263Z,13.00
2019-04-27T01:29:24.911Z,13.00
2019-04-27T01:31:54.644Z,13.00
2019-04-27T01:34:24.295Z,13.00
2019-04-27T01:36:54.000Z,12.90
2019-04-27T01:39:23.623Z,13.00
2019-04-27T01:41:53.238Z,13.00
2019-04-27T01:44:22.859Z,13.00
2019-04-27T01:46:52.500Z,13.10
2019-04-27T01:49:22.137Z,13.00
2019-04-27T01:51:51.744Z,13.00
2019-04-27T01:54:23.179Z,13.10
2019-04-27T01:56:52.808Z,13.10
2019-04-27T01:59:22.436Z,13.10
2019-04-27T02:02:26.359Z,13.00
2019-04-27T02:05:21.843Z,13.10
2019-04-27T02:07:51.467Z,13.10
2019-04-27T02:10:21.135Z,13.10
2019-04-27T02:12:50.792Z,13.00
2019-04-27T02:15:20.576Z,13.00
2019-04-27T02:17:50.997Z,12.90
2019-04-27T02:20:20.749Z,12.80
2019-04-27T02:22:50.733Z,12.80
2019-04-27T02:25:21.137Z,12.70
2019-04-27T02:27:55.808Z,12.70
2019-04-27T02:30:43.240Z,12.60
2019-04-27T02:33:34.781Z,12.60
2019-04-27T02:36:04.512Z,12.50
2019-04-27T02:38:34.154Z,12.40
2019-04-27T02:41:06.037Z,12.30
2019-04-27T02:44:06.562Z,12.20
2019-04-27T02:46:36.225Z,12.20
2019-04-27T02:49:07.064Z,12.20
2019-04-27T02:51:55.751Z,12.10
2019-04-27T02:54:25.416Z,12.10
2019-04-27T02:56:55.097Z,12.00
2019-04-27T02:59:24.837Z,12.00
2019-04-27T03:02:03.509Z,12.00
2019-04-27T03:04:33.253Z,12.00
2019-04-27T03:07:02.977Z,11.90
2019-04-27T03:09:32.635Z,11.90
2019-04-27T03:12:03.706Z,11.90
2019-04-27T03:14:51.195Z,11.90
2019-04-27T03:17:45.237Z,11.80
2019-04-27T03:20:33.765Z,11.80
2019-04-27T03:23:05.877Z,11.70
2019-04-27T03:26:00.474Z,11.70
2019-04-27T03:28:30.333Z,11.70
2019-04-27T03:31:02.632Z,11.60
2019-04-27T03:33:32.731Z,11.60
2019-04-27T03:36:03.293Z,11.60
2019-04-27T03:38:33.136Z,11.40
2019-04-27T03:41:02.877Z,11.50
2019-04-27T03:43:32.559Z,11.40
2019-04-27T03:46:02.245Z,11.40
2019-04-27T03:48:31.962Z,11.40
2019-04-27T03:51:30.022Z,11.40
2019-04-27T03:54:22.132Z,11.40
2019-04-27T03:56:55.635Z,11.40
2019-04-27T03:59:33.723Z,11.40
2019-04-27T04:02:03.509Z,11.40
2019-04-27T04:04:33.136Z,11.40
2019-04-27T04:07:14.883Z,11.50
2019-04-27T04:09:44.847Z,11.60
2019-04-27T04:12:23.519Z,11.70
2019-04-27T04:14:53.249Z,11.80
2019-04-27T04:17:23.862Z,11.90
2019-04-27T04:19:57.303Z,12.00
2019-04-27T04:22:24.836Z,12.10
2019-04-27T04:24:54.480Z,12.00
2019-04-27T04:27:24.111Z,12.00
2019-04-27T04:29:53.771Z,12.10
2019-04-27T04:32:23.441Z,12.10
2019-04-27T04:34:53.037Z,12.20
2019-04-27T04:37:22.675Z,12.20
2019-04-27T04:39:53.564Z,12.20
2019-04-27T04:42:39.231Z,12.30
2019-04-27T04:45:16.202Z,12.30
2019-04-27T04:48:04.701Z,12.40
2019-04-27T04:50:34.316Z,12.50
2019-04-27T04:53:04.028Z,12.50
2019-04-27T04:55:33.740Z,12.60
2019-04-27T04:58:03.490Z,12.70
2019-04-27T05:00:33.165Z,12.80
2019-04-27T05:03:02.912Z,12.90
2019-04-27T05:05:32.544Z,13.00
2019-04-27T05:08:02.244Z,13.00
2019-04-27T05:10:31.879Z,13.10
2019-04-27T05:13:01.939Z,13.10
2019-04-27T05:15:31.667Z,13.10
2019-04-27T05:18:01.279Z,13.20
2019-04-27T05:20:45.551Z,13.30
2019-04-27T05:23:15.180Z,13.30
2019-04-27T05:25:44.795Z,13.40
2019-04-27T05:28:14.440Z,13.50
2019-04-27T05:30:44.140Z,13.60
2019-04-27T05:33:13.809Z,13.70
2019-04-27T05:35:43.564Z,13.70
2019-04-27T05:38:13.616Z,13.80
2019-04-27T05:40:43.476Z,13.90
2019-04-27T05:43:14.668Z,13.90
2019-04-27T05:46:39.658Z,14.10
2019-04-27T05:49:13.144Z,14.20
2019-04-27T05:51:42.803Z,14.30
2019-04-27T05:54:12.543Z,14.40
2019-04-27T05:56:42.177Z,14.50
2019-04-27T05:59:14.561Z,14.60
2019-04-27T06:01:43.134Z,14.70
2019-04-27T06:04:12.743Z,14.80
2019-04-27T06:06:42.432Z,14.90
2019-04-27T06:09:12.059Z,15.00
2019-04-27T06:11:41.679Z,15.10
2019-04-27T06:14:11.318Z,15.10
2019-04-27T06:16:41.052Z,15.20
2019-04-27T06:19:10.780Z,15.30
2019-04-27T06:21:40.394Z,15.40
2019-04-27T06:24:10.084Z,15.50
2019-04-27T06:26:40.059Z,15.70
2019-04-27T06:29:09.799Z,15.80
2019-04-27T06:31:39.782Z,15.90
2019-04-27T06:34:09.903Z,16.00
2019-04-27T06:36:39.770Z,16.10
2019-04-27T06:39:10.052Z,16.20
2019-04-27T06:41:40.161Z,16.20
2019-04-27T06:44:11.363Z,16.30
2019-04-27T06:46:41.281Z,16.50
2019-04-27T06:49:11.250Z,16.70
2019-04-27T06:51:41.184Z,16.80
2019-04-27T06:54:10.827Z,17.00
2019-04-27T06:56:40.600Z,17.20
2019-04-27T06:59:10.227Z,17.40
2019-04-27T07:01:39.885Z,17.50
2019-04-27T07:04:10.975Z,17.50
2019-04-27T07:06:52.932Z,17.70
2019-04-27T07:09:12.291Z,17.80
2019-04-27T07:11:42.051Z,18.00
2019-04-27T07:14:11.883Z,18.00
2019-04-27T07:16:41.606Z,18.20
2019-04-27T07:19:11.291Z,18.40
2019-04-27T07:21:40.937Z,18.70
2019-04-27T07:24:10.578Z,18.90
2019-04-27T07:26:40.256Z,19.10
2019-04-27T07:29:09.935Z,19.20
2019-04-27T07:31:40.049Z,19.40
2019-04-27T07:34:10.128Z,19.40
2019-04-27T07:36:39.856Z,19.70
2019-04-27T07:39:11.586Z,19.90
2019-04-27T07:41:41.264Z,20.10
2019-04-27T07:44:16.304Z,20.30
2019-04-27T07:46:47.841Z,20.60
2019-04-27T07:49:18.986Z,20.80
2019-04-27T07:51:49.034Z,21.10
2019-04-27T07:54:19.027Z,21.30
2019-04-27T07:56:48.906Z,21.50
2019-04-27T07:59:18.954Z,21.70
2019-04-27T08:01:49.202Z,21.80
2019-04-27T08:04:19.080Z,22.10
2019-04-27T08:06:49.657Z,22.50
2019-04-27T08:09:19.380Z,22.90
2019-04-27T08:11:49.001Z,23.20
2019-04-27T08:14:18.671Z,23.60
2019-04-27T08:16:48.698Z,23.50
2019-04-27T08:19:19.616Z,23.40
2019-04-27T08:21:49.910Z,23.70
2019-04-27T08:24:19.800Z,23.80
2019-04-27T08:26:59.420Z,23.90
2019-04-27T08:29:40.299Z,24.00
2019-04-27T08:32:13.361Z,24.20
2019-04-27T08:34:43.036Z,24.40
2019-04-27T08:37:13.160Z,24.70
2019-04-27T08:39:43.089Z,24.80
2019-04-27T08:42:12.856Z,25.20
2019-04-27T08:44:42.613Z,25.30
2019-04-27T08:47:12.336Z,25.00
2019-04-27T08:49:41.961Z,24.80
2019-04-27T08:52:11.704Z,24.90
2019-04-27T08:54:41.343Z,25.10
2019-04-27T08:57:11.043Z,25.10
2019-04-27T08:59:40.716Z,24.70
2019-04-27T09:02:10.356Z,24.70
2019-04-27T09:04:40.102Z,24.60
2019-04-27T09:07:29.471Z,24.50
2019-04-27T09:10:04.035Z,24.60
2019-04-27T09:13:04.680Z,25.00
2019-04-27T09:15:42.083Z,24.60
2019-04-27T09:18:13.004Z,24.80
2019-04-27T09:20:46.448Z,24.80
2019-04-27T09:23:16.141Z,25.10
2019-04-27T09:25:45.840Z,24.80
2019-04-27T09:28:15.488Z,24.80
2019-04-27T09:30:45.232Z,24.90
2019-04-27T09:33:14.864Z,24.80
2019-04-27T09:35:46.516Z,24.80
2019-04-27T09:38:16.742Z,24.90
2019-04-27T09:40:47.398Z,25.40
2019-04-27T09:43:17.088Z,25.10
2019-04-27T09:45:47.168Z,25.00
2019-04-27T09:48:17.669Z,25.40
2019-04-27T09:50:47.360Z,25.70
2019-04-27T09:53:17.003Z,25.80
2019-04-27T09:55:46.905Z,25.90
2019-04-27T09:58:18.470Z,26.10
2019-04-27T10:00:49.557Z,26.40
2019-04-27T10:03:19.281Z,26.40
2019-04-27T10:05:48.960Z,26.40
2019-04-27T10:08:18.666Z,26.70
2019-04-27T10:10:48.384Z,26.20
2019-04-27T10:13:18.099Z,25.40
2019-04-27T10:15:47.837Z,25.10
2019-04-27T10:18:17.520Z,25.00
2019-04-27T10:20:59.143Z,24.80
2019-04-27T10:23:18.555Z,24.80
2019-04-27T10:25:48.252Z,24.70
2019-04-27T10:28:17.922Z,24.60
2019-04-27T10:30:47.620Z,24.70
2019-04-27T10:33:17.848Z,24.50
2019-04-27T10:35:47.484Z,24.30
2019-04-27T10:38:17.273Z,24.20
2019-04-27T10:40:47.244Z,23.80
2019-04-27T10:43:16.895Z,23.60
2019-04-27T10:45:46.928Z,23.60
2019-04-27T10:48:18.002Z,23.70
2019-04-27T10:50:47.712Z,23.60
2019-04-27T10:53:17.361Z,23.40
2019-04-27T10:55:47.095Z,23.30
2019-04-27T10:58:16.805Z,23.10
2019-04-27T11:00:50.873Z,22.80
2019-04-27T11:03:39.437Z,22.90
2019-04-27T11:06:27.981Z,23.00
2019-04-27T11:08:57.712Z,23.10
2019-04-27T11:11:27.854Z,23.30
2019-04-27T11:14:00.816Z,23.30
2019-04-27T11:16:29.046Z,23.10
2019-04-27T11:18:58.901Z,22.60
2019-04-27T11:21:28.557Z,22.70
2019-04-27T11:23:58.248Z,22.70
2019-04-27T11:26:27.904Z,22.80
2019-04-27T11:28:57.610Z,23.00
2019-04-27T11:31:27.444Z,22.80
2019-04-27T11:33:57.405Z,22.90
2019-04-27T11:36:48.958Z,23.10
2019-04-27T11:39:21.249Z,23.30
2019-04-27T11:41:50.899Z,22.60
2019-04-27T11:44:20.550Z,22.50
2019-04-27T11:46:50.236Z,22.20
2019-04-27T11:49:19.867Z,21.60
2019-04-27T11:51:49.632Z,21.60
2019-04-27T11:54:19.397Z,21.90
2019-04-27T11:56:49.073Z,21.60
2019-04-27T11:59:18.849Z,22.00
2019-04-27T12:01:48.625Z,21.90
2019-04-27T12:04:18.304Z,21.90
2019-04-27T12:06:47.970Z,22.30
2019-04-27T12:09:17.620Z,22.80
2019-04-27T12:11:47.374Z,22.90
2019-04-27T12:14:17.074Z,23.10
2019-04-27T12:16:46.800Z,23.40
2019-04-27T12:19:16.481Z,23.60
2019-04-27T12:21:46.448Z,23.50
2019-04-27T12:24:17.824Z,23.70
2019-04-27T12:27:05.763Z,23.90
2019-04-27T12:29:52.817Z,24.00
2019-04-27T12:32:22.852Z,24.00
2019-04-27T12:34:52.513Z,24.10
2019-04-27T12:37:22.208Z,24.40
2019-04-27T12:39:51.860Z,23.70
2019-04-27T12:42:21.516Z,23.00
2019-04-27T12:44:51.169Z,23.80
2019-04-27T12:47:20.984Z,24.40
2019-04-27T12:49:50.720Z,25.60
2019-04-27T12:52:21.872Z,26.70
2019-04-27T12:54:58.544Z,28.10
2019-04-27T12:58:02.211Z,28.90
2019-04-27T13:00:35.888Z,29.50
2019-04-27T13:03:06.132Z,29.40
2019-04-27T13:05:35.971Z,29.40
2019-04-27T13:08:05.553Z,29.20
2019-04-27T13:10:35.292Z,28.90
2019-04-27T13:13:06.349Z,27.90
2019-04-27T13:15:36.151Z,28.10
2019-04-27T13:18:05.833Z,28.80
2019-04-27T13:20:35.966Z,30.00
2019-04-27T13:23:07.342Z,31.50
2019-04-27T13:25:38.502Z,32.90
2019-04-27T13:28:08.292Z,33.60
2019-04-27T13:30:37.931Z,34.10
2019-04-27T13:33:07.567Z,33.90
2019-04-27T13:35:37.263Z,33.70
2019-04-27T13:38:07.851Z,34.00
2019-04-27T13:40:39.492Z,33.60
2019-04-27T13:43:25.829Z,33.80
2019-04-27T13:46:08.792Z,34.00
2019-04-27T13:48:56.336Z,34.50
2019-04-27T13:51:51.263Z,34.90
2019-04-27T13:54:26.125Z,36.20
2019-04-27T13:56:52.372Z,36.20
2019-04-27T13:59:22.023Z,36.40
2019-04-27T14:01:51.728Z,36.20
2019-04-27T14:04:21.440Z,35.10
2019-04-27T14:06:51.088Z,34.20
2019-04-27T14:09:20.820Z,33.30
2019-04-27T14:11:52.073Z,34.00
2019-04-27T14:14:21.726Z,34.00
2019-04-27T14:16:51.431Z,34.00
2019-04-27T14:19:21.171Z,33.70
2019-04-27T14:21:50.881Z,32.60
2019-04-27T14:24:27.831Z,33.00
2019-04-27T14:26:51.936Z,34.30
2019-04-27T14:29:21.568Z,34.30
2019-04-27T14:31:51.192Z,33.20
2019-04-27T14:34:20.888Z,31.80
2019-04-27T14:36:50.572Z,31.90
2019-04-27T14:39:20.525Z,31.40
2019-04-27T14:41:50.196Z,31.40
2019-04-27T14:44:19.806Z,30.20
2019-04-27T14:46:49.413Z,30.40
2019-04-27T14:49:21.881Z,30.50
2019-04-27T14:51:51.594Z,30.80
2019-04-27T14:54:21.404Z,31.30
2019-04-27T14:56:51.052Z,31.10
2019-04-27T14:59:20.822Z,30.90
2019-04-27T15:01:50.534Z,30.80
2019-04-27T15:04:20.253Z,30.40
2019-04-27T15:06:49.881Z,30.20
2019-04-27T15:09:21.077Z,30.20
2019-04-27T15:11:53.391Z,30.60
2019-04-27T15:14:23.752Z,30.60
2019-04-27T15:16:53.620Z,30.20
2019-04-27T15:19:32.184Z,30.10
2019-04-27T15:22:01.873Z,30.00
2019-04-27T15:24:31.596Z,29.80
2019-04-27T15:27:03.233Z,29.60
2019-04-27T15:29:33.282Z,28.90
2019-04-27T15:32:07.145Z,28.30
2019-04-27T15:35:00.534Z,28.10
2019-04-27T15:37:46.127Z,27.80
2019-04-27T15:40:34.806Z,27.40
2019-04-27T15:43:22.845Z,27.20
2019-04-27T15:45:53.387Z,27.00
2019-04-27T15:48:25.014Z,26.90
2019-04-27T15:51:03.313Z,26.40
2019-04-27T15:53:31.343Z,26.50
2019-04-27T15:56:02.014Z,26.30
2019-04-27T15:58:31.731Z,26.30
2019-04-27T16:01:05.630Z,26.30
2019-04-27T16:03:33.468Z,26.00
2019-04-27T16:06:07.046Z,26.20
2019-04-27T16:08:38.196Z,26.10
2019-04-27T16:11:10.002Z,26.00
2019-04-27T16:13:41.572Z,26.00
2019-04-27T16:16:11.240Z,26.00
2019-04-27T16:18:40.905Z,26.00
2019-04-27T16:21:11.030Z,25.00
2019-04-27T16:23:43.203Z,24.30
2019-04-27T16:26:14.907Z,24.30
2019-04-27T16:28:49.793Z,24.20
2019-04-27T16:31:15.036Z,23.80
2019-04-27T16:33:44.681Z,23.50
2019-04-27T16:36:14.330Z,23.20
2019-04-27T16:39:03.846Z,22.80
2019-04-27T16:41:33.132Z,22.80
2019-04-27T16:44:06.770Z,22.70
2019-04-27T16:46:34.878Z,22.60
2019-04-27T16:49:07.491Z,22.50
2019-04-27T16:51:40.203Z,22.30
2019-04-27T16:54:13.065Z,22.10
2019-04-27T16:56:39.709Z,21.90
2019-04-27T16:59:33.758Z,21.70
2019-04-27T17:01:46.218Z,21.40
2019-04-27T17:04:15.008Z,21.20
2019-04-27T17:06:45.888Z,20.90
2019-04-27T17:09:14.872Z,20.50
2019-04-27T17:11:50.162Z,20.30
2019-04-27T17:14:34.794Z,20.10
2019-04-27T17:17:21.388Z,19.80
2019-04-27T17:19:54.138Z,19.60
2019-04-27T17:22:26.621Z,19.40
2019-04-27T17:24:58.070Z,19.30
2019-04-27T17:27:38.307Z,19.10
2019-04-27T17:30:09.052Z,19.00
2019-04-27T17:32:49.300Z,18.90
2019-04-27T17:35:19.000Z,18.70
2019-04-27T17:37:48.974Z,18.50
2019-04-27T17:40:18.724Z,18.30
2019-04-27T17:42:48.388Z,18.20
2019-04-27T17:45:21.406Z,18.00
2019-04-27T17:47:49.549Z,17.80
2019-04-27T17:50:24.994Z,17.70
2019-04-27T17:52:54.882Z,17.50
2019-04-27T17:55:24.472Z,17.50
2019-04-27T17:57:53.409Z,17.30
2019-04-27T18:00:23.324Z,17.20
2019-04-27T18:02:53.030Z,17.10
2019-04-27T18:05:22.764Z,17.00
2019-04-27T18:07:52.796Z,16.90
2019-04-27T18:10:24.302Z,16.80
2019-04-27T18:12:53.832Z,16.70
2019-04-27T18:15:23.460Z,16.70
2019-04-27T18:17:54.798Z,16.60
2019-04-27T18:20:25.736Z,16.50
2019-04-27T18:23:01.640Z,16.40
2019-04-27T18:25:35.527Z,16.30
2019-04-27T18:28:15.165Z,16.30
2019-04-27T18:31:16.029Z,16.20
2019-04-27T18:33:43.093Z,16.10
2019-04-27T18:36:14.352Z,16.00
2019-04-27T18:38:55.836Z,16.00
2019-04-27T18:41:25.548Z,15.90
2019-04-27T18:43:58.083Z,15.90
2019-04-27T18:46:28.199Z,15.90
2019-04-27T18:49:18.119Z,15.80
2019-04-27T18:52:13.304Z,15.80
2019-04-27T18:54:42.972Z,15.80
2019-04-27T18:57:15.449Z,15.70
2019-04-27T18:59:44.001Z,15.70
2019-04-27T19:02:13.645Z,15.70
2019-04-27T19:04:43.326Z,15.60
2019-04-27T19:07:12.949Z,15.60
2019-04-27T19:09:42.608Z,15.60
2019-04-27T19:12:12.264Z,15.50
2019-04-27T19:14:41.939Z,15.50
2019-04-27T19:17:11.632Z,15.50
2019-04-27T19:19:41.285Z,15.50
2019-04-27T19:22:10.987Z,15.50
2019-04-27T19:24:41.434Z,15.50
2019-04-27T19:27:32.736Z,15.50
2019-04-27T19:30:11.286Z,15.50
2019-04-27T19:32:40.960Z,15.50
2019-04-27T19:35:10.858Z,15.50
2019-04-27T19:37:40.544Z,15.50
2019-04-27T19:40:10.266Z,15.50
2019-04-27T19:42:39.948Z,15.50
2019-04-27T19:45:09.838Z,15.50
2019-04-27T19:47:39.537Z,15.50
2019-04-27T19:50:10.277Z,15.40
2019-04-27T19:52:40.024Z,15.40
2019-04-27T19:55:09.751Z,15.40
2019-04-27T19:57:42.058Z,15.40
2019-04-27T20:00:22.769Z,15.40
2019-04-27T20:02:52.396Z,15.40
2019-04-27T20:05:22.090Z,15.30
2019-04-27T20:07:51.768Z,15.30
2019-04-27T20:10:21.388Z,15.30
2019-04-27T20:12:51.062Z,15.30
2019-04-27T20:15:20.690Z,15.20
2019-04-27T20:17:50.823Z,15.20
2019-04-27T20:20:20.643Z,15.20
2019-04-27T20:22:50.421Z,15.20
2019-04-27T20:25:21.257Z,15.20
2019-04-27T20:27:51.966Z,15.10
2019-04-27T20:30:21.797Z,15.10
2019-04-27T20:32:51.464Z,15.10
2019-04-27T20:35:21.982Z,15.10
2019-04-27T20:37:51.972Z,15.00
2019-04-27T20:40:21.944Z,15.00
2019-04-27T20:42:51.764Z,15.00
2019-04-27T20:45:21.319Z,15.00
2019-04-27T20:47:52.688Z,15.00
2019-04-27T20:50:22.457Z,14.90
2019-04-27T20:52:54.251Z,14.90
2019-04-27T20:55:24.196Z,14.90
2019-04-27T20:58:01.635Z,14.90
2019-04-27T21:00:25.768Z,14.80
2019-04-27T21:03:11.775Z,14.80
2019-04-27T21:05:51.119Z,14.80
2019-04-27T21:08:21.701Z,14.80
2019-04-27T21:10:51.623Z,14.70
2019-04-27T21:13:21.320Z,14.70
2019-04-27T21:15:51.062Z,14.70
2019-04-27T21:18:21.752Z,14.60
2019-04-27T21:20:51.516Z,14.60
2019-04-27T21:23:21.172Z,14.60
2019-04-27T21:25:53.009Z,14.60
2019-04-27T21:28:22.160Z,14.50
2019-04-27T21:30:51.901Z,14.50
2019-04-27T21:33:21.655Z,14.50
2019-04-27T21:35:51.368Z,14.50
2019-04-27T21:38:20.999Z,14.50
2019-04-27T21:40:50.640Z,14.50
2019-04-27T21:43:21.624Z,14.50
2019-04-27T21:45:51.436Z,14.50
2019-04-27T21:48:21.382Z,14.50
2019-04-27T21:50:51.715Z,14.50
2019-04-27T21:53:51.149Z,14.50
2019-04-27T21:56:21.148Z,14.50
2019-04-27T21:58:51.183Z,14.40
2019-04-27T22:01:46.580Z,14.40
2019-04-27T22:04:16.197Z,14.40
2019-04-27T22:06:45.827Z,14.40
2019-04-27T22:09:16.680Z,14.40
2019-04-27T22:11:46.399Z,14.40
2019-04-27T22:14:16.043Z,14.40
2019-04-27T22:16:45.660Z,14.40
2019-04-27T22:19:15.356Z,14.30
2019-04-27T22:21:45.007Z,14.30
2019-04-27T22:24:22.859Z,14.30
2019-04-27T22:26:52.616Z,14.30
2019-04-27T22:29:22.290Z,14.30
2019-04-27T22:31:51.905Z,14.30
2019-04-27T22:34:22.374Z,14.30
2019-04-27T22:36:52.048Z,14.30
2019-04-27T22:39:31.008Z,14.30
2019-04-27T22:42:12.160Z,14.30
2019-04-27T22:44:45.362Z,14.30
2019-04-27T22:47:15.004Z,14.30
2019-04-27T22:49:44.708Z,14.30
2019-04-27T22:52:14.464Z,14.30
2019-04-27T22:54:44.160Z,14.40
2019-04-27T22:57:20.800Z,14.40
2019-04-27T23:00:08.424Z,14.40
2019-04-27T23:02:45.161Z,14.50
2019-04-27T23:05:14.860Z,14.50
2019-04-27T23:07:44.579Z,14.50
2019-04-27T23:10:14.230Z,14.50
2019-04-27T23:12:43.988Z,14.50
2019-04-27T23:15:17.788Z,14.50
2019-04-27T23:17:52.943Z,14.40
2019-04-27T23:20:22.641Z,14.50
2019-04-27T23:22:52.376Z,14.40
2019-04-27T23:25:21.996Z,14.40
2019-04-27T23:27:51.857Z,14.50
2019-04-27T23:30:23.969Z,14.50
2019-04-27T23:32:53.624Z,14.50
2019-04-27T23:35:23.252Z,14.40
2019-04-27T23:37:53.024Z,14.40
2019-04-27T23:40:22.779Z,14.40
2019-04-27T23:42:52.437Z,14.40
2019-04-27T23:45:22.449Z,14.40
2019-04-27T23:47:52.485Z,14.30
2019-04-27T23:50:22.182Z,14.30
2019-04-27T23:53:21.718Z,14.30
2019-04-27T23:55:51.112Z,14.30
2019-04-27T23:58:20.745Z,14.20
